Towaco, NJ

8:49 PM EDT on October 21, 2014 (GMT -0400)
KNJMONTV2 | Change Station
CLOSE
Current Station
Personal Weather Station
Location: Montville, NJ
Elevation: 410 ft
Nearby Weather Stations
Active Advisory: Areal Flood Advisory

Elev 410 ft 40.89 °N, 74.35 °W | Updated 11 minutes ago

Rain
Rain
53.7 °F
Feels Like 53.7 °F
N
2.0
Wind Variable Wind from ENE
Gusts 6.0 mph

Today
High -- | Low -- °F
--% Chance of Precip.
Yesterday
High -- | Low -- °F
Precip. -- in
7:15 AM 6:07 PM
Waning Crescent, 4% visible
Pressure 29.92 in
Visibility 3.0 miles
Clouds Scattered Clouds 2600 ft
Overcast 4400 ft
Dew Point 52 °F
Humidity 95%
Rainfall 0.58 in
Snow Depth Not available.
UV 0 out of 12
Pollen .70 out of 12
PM2.5 Good
Flu Activity Sporadic
METAR KCDW 212353Z 06004KT 3SM RA BR SCT026 OVC044 12/11 A2990 RMK AO2 TWR VIS 5 RAB09 SLP131 P0010 60034 T01220106 10178 20122 53022

More Conditions Fewer Conditions

Pressure 29.92 in
Visibility 3.0 miles
Clouds Scattered Clouds 2600 ft
Overcast 4400 ft
Dew Point 52 °F
Humidity 95%
Rainfall 0.58 in
Snow Depth Not available.
UV 0 out of 12
Pollen .70 out of 12
PM2.5 Good
Flu Activity Sporadic
METAR KCDW 212353Z 06004KT 3SM RA BR SCT026 OVC044 12/11 A2990 RMK AO2 TWR VIS 5 RAB09 SLP131 P0010 60034 T01220106 10178 20122 53022

More Conditions Fewer Conditions

10-Day Weather Forecast

Almanac

Astronomy

Oct. 21, 2014 Rise Set
Actual Time 7:15 AM EDT 6:07 PM EDT
Civil Twilight 6:47 AM EDT 6:35 PM EDT
Nautical Twilight 6:15 AM EDT 7:07 PM EDT
Astronomical Twilight 5:43 AM EDT 7:39 PM EDT
Moon 4:56 AM EDT (10/21) 5:01 PM EDT (10/21)
Length of Visible Light 11h 48m
Length of Day
10h 52m
Tomorrow will be 2m 34s shorter.
Waning Crescent, 4% of the Moon is Illuminated
Today
Waning Crescent
Oct 23
New
Oct 30
First Quarter
Nov 6
Full
Nov 14
Last Quarter

Today's Extremes

State Highs State Lows

Community

WunderPhotos

Upload Photos

1,763,837 photos uploaded!

Nearby

Air Quality

  Air Quality AQ Index Pollutant
Current Good
PM2.5
Tuesday Good
PM2.5
Wednesday Good
PM2.5

Snow Depth

Station Depth Elevation
No new snow has been reported.

Earthquake Activity

City Distance Mag. Time & Date
No recent earthquake activity has been reported nearby.
Minimum magnitude displayed is 2.5.

Coastal Water Temperatures

Place Temperature
Sandy Hook, NJ 61.0 °F
The Battery, NY 63.0 °F
Bergen Point West Reach, NJ 63.0 °F

Nearby Weather Stations